Time;durP1;ratioP1;P1;durP2;ratioP2;P2;SDS_P1;SDS_P2;PMS_P1;PMS_P2;Temp;Humidity;BMP_temperature;BMP_pressure;BME280_temperature;BME280_humidity;BME280_pressure;Samples;Min_cycle;Max_cycle;Signal;HPM_P1;HPM_P2
2022/05/05 00:02:20;;;;;;;7.03;6.53;;;12.10;99.90;;;;;;5012981;28;20397;-83
2022/05/05 00:04:45;;;;;;;7.60;7.00;;;11.90;99.90;;;;;;5012929;28;20808;-84
2022/05/05 00:07:11;;;;;;;7.53;6.93;;;11.60;99.90;;;;;;5013008;28;20912;-86
2022/05/05 00:09:37;;;;;;;6.70;6.20;;;11.90;99.90;;;;;;5012919;28;20384;-84
2022/05/05 00:14:47;;;;;;;6.30;5.90;;;11.90;99.90;;;;;;5013112;28;20911;-85
2022/05/05 00:17:12;;;;;;;7.78;7.07;;;12.40;99.90;;;;;;5012732;28;20389;-85
2022/05/05 00:19:41;;;;;;;8.48;7.88;;;12.60;99.90;;;;;;5007155;28;20476;-86
2022/05/05 00:22:08;;;;;;;7.88;7.20;;;12.50;99.90;;;;;;5012009;28;20476;-85
2022/05/05 00:24:34;;;;;;;7.70;7.00;;;12.70;99.90;;;;;;5012558;28;20428;-85
2022/05/05 00:27:00;;;;;;;7.40;6.70;;;12.70;99.90;;;;;;5012566;28;20899;-85
2022/05/05 00:29:26;;;;;;;6.60;6.10;;;12.90;99.90;;;;;;5012926;28;20479;-85
2022/05/05 00:31:52;;;;;;;6.40;5.90;;;12.80;99.90;;;;;;5012888;28;20389;-85
2022/05/05 00:34:18;;;;;;;6.45;5.70;;;12.70;99.90;;;;;;5012489;28;20801;-85
2022/05/05 00:36:44;;;;;;;6.35;5.85;;;12.80;99.90;;;;;;5012467;28;20397;-85
2022/05/05 00:39:11;;;;;;;6.75;6.20;;;12.80;99.90;;;;;;5012363;28;20447;-85
2022/05/05 00:41:41;;;;;;;6.78;6.28;;;12.50;99.90;;;;;;5012224;28;20389;-85
2022/05/05 00:44:07;;;;;;;6.05;5.60;;;12.50;99.90;;;;;;5012352;28;20469;-85
2022/05/05 00:46:33;;;;;;;7.03;6.50;;;12.50;99.90;;;;;;5012453;28;20388;-85
2022/05/05 00:49:00;;;;;;;5.50;5.10;;;12.60;99.90;;;;;;5012394;28;20400;-85
2022/05/05 00:51:26;;;;;;;6.13;5.63;;;12.60;99.90;;;;;;5012410;28;20452;-85
2022/05/05 00:53:52;;;;;;;5.95;5.55;;;12.70;99.90;;;;;;5012253;28;20393;-85
2022/05/05 00:56:19;;;;;;;5.70;5.30;;;13.00;99.90;;;;;;5012446;28;20486;-85
2022/05/05 00:58:46;;;;;;;5.55;5.15;;;13.10;99.90;;;;;;5012377;28;20944;-85
2022/05/05 01:01:17;;;;;;;5.60;5.18;;;13.20;99.90;;;;;;5011494;28;20480;-85
2022/05/05 01:03:43;;;;;;;6.40;5.88;;;13.30;99.90;;;;;;5012232;28;20838;-84
2022/05/05 01:06:08;;;;;;;6.07;5.68;;;13.00;99.90;;;;;;5012368;28;20484;-84
2022/05/05 01:08:35;;;;;;;6.13;5.73;;;13.10;99.90;;;;;;5012258;28;20471;-85
2022/05/05 01:11:01;;;;;;;6.63;6.05;;;13.10;99.90;;;;;;5008786;28;20413;-85
2022/05/05 01:13:27;;;;;;;5.90;5.50;;;13.00;99.90;;;;;;5010793;28;20874;-85
2022/05/05 01:15:54;;;;;;;6.30;5.80;;;12.80;99.90;;;;;;5010369;28;20766;-85
2022/05/05 01:18:20;;;;;;;6.65;6.15;;;13.10;99.90;;;;;;5011530;28;20420;-85
2022/05/05 01:20:47;;;;;;;5.90;5.50;;;13.00;99.90;;;;;;5009156;28;20385;-85
2022/05/05 01:23:14;;;;;;;6.05;5.65;;;13.00;99.90;;;;;;5011897;28;20392;-85
2022/05/05 01:28:25;;;;;;;6.67;6.17;;;12.80;99.90;;;;;;5011064;28;20392;-85
2022/05/05 01:30:50;;;;;;;6.70;6.30;;;12.70;99.90;;;;;;5012515;28;20393;-85
2022/05/05 01:33:17;;;;;;;6.20;5.80;;;12.80;99.90;;;;;;5015792;28;20397;-85
2022/05/05 01:35:44;;;;;;;6.68;6.18;;;12.70;99.90;;;;;;5015523;28;20392;-85
2022/05/05 01:38:12;;;;;;;7.90;7.05;;;12.80;99.90;;;;;;5014620;28;20458;-85
2022/05/05 01:40:43;;;;;;;7.10;6.50;;;12.60;99.90;;;;;;5015724;28;20484;-85
2022/05/05 01:43:09;;;;;;;6.68;6.18;;;12.50;99.90;;;;;;5014683;28;20435;-85
2022/05/05 01:45:36;;;;;;;6.20;5.80;;;12.40;99.90;;;;;;5031376;28;20393;-85
2022/05/05 01:48:02;;;;;;;6.25;5.82;;;12.50;99.90;;;;;;5015580;28;20416;-85
2022/05/05 01:50:31;;;;;;;6.05;5.60;;;12.80;99.90;;;;;;5015572;28;20859;-85
2022/05/05 01:52:58;;;;;;;6.05;5.55;;;12.70;99.90;;;;;;5015407;28;20471;-85
2022/05/05 01:55:23;;;;;;;6.15;5.75;;;12.70;99.90;;;;;;5015280;28;20396;-84
2022/05/05 01:57:49;;;;;;;6.28;5.88;;;12.60;99.90;;;;;;5015393;28;20388;-85
2022/05/05 02:00:16;;;;;;;6.80;6.30;;;12.90;99.90;;;;;;5015405;28;20443;-85
2022/05/05 02:02:43;;;;;;;7.18;6.57;;;12.80;99.90;;;;;;5015418;28;20408;-86
2022/05/05 02:05:09;;;;;;;6.63;6.20;;;12.80;99.90;;;;;;5015110;28;20385;-85
2022/05/05 02:07:35;;;;;;;6.47;6.03;;;12.90;99.90;;;;;;5015432;28;20724;-84
2022/05/05 02:10:03;;;;;;;5.32;4.88;;;13.00;99.90;;;;;;5013792;28;20416;-84
2022/05/05 02:12:33;;;;;;;5.18;4.88;;;13.00;99.90;;;;;;5015416;28;20388;-84
2022/05/05 02:14:58;;;;;;;5.43;5.03;;;13.00;99.90;;;;;;5012132;28;20746;-85
2022/05/05 02:17:24;;;;;;;5.65;5.25;;;13.00;99.90;;;;;;5015163;28;20388;-85
2022/05/05 02:19:50;;;;;;;5.45;5.03;;;12.80;99.90;;;;;;5005692;28;20406;-84
2022/05/05 02:22:16;;;;;;;5.50;5.20;;;12.80;99.90;;;;;;5013431;28;20695;-85
2022/05/05 02:24:41;;;;;;;5.83;5.33;;;12.50;99.90;;;;;;5014831;28;20512;-85
2022/05/05 02:27:08;;;;;;;6.07;5.67;;;12.50;99.90;;;;;;5009211;28;20771;-85
2022/05/05 02:29:34;;;;;;;5.50;5.20;;;12.40;99.90;;;;;;5012435;28;20466;-85
2022/05/05 02:32:00;;;;;;;6.17;5.73;;;12.40;99.90;;;;;;5011757;28;20882;-85
2022/05/05 02:34:25;;;;;;;6.53;6.07;;;12.10;99.90;;;;;;5012378;28;20385;-85
2022/05/05 02:39:35;;;;;;;7.07;6.57;;;11.70;99.90;;;;;;5014671;28;20995;-85
2022/05/05 02:42:01;;;;;;;7.00;6.47;;;11.80;99.90;;;;;;5014550;28;20392;-85
2022/05/05 02:44:26;;;;;;;6.90;6.40;;;11.80;99.90;;;;;;5013627;28;20419;-85
2022/05/05 02:46:52;;;;;;;7.00;6.50;;;12.00;99.90;;;;;;5013520;28;20385;-84
2022/05/05 02:49:18;;;;;;;6.97;6.47;;;12.30;99.90;;;;;;5014523;28;20388;-84
2022/05/05 02:51:45;;;;;;;6.80;6.40;;;12.40;99.90;;;;;;5014746;28;20388;-84
2022/05/05 02:56:55;;;;;;;6.30;5.90;;;12.40;99.90;;;;;;5014570;28;20392;-84
2022/05/05 02:59:20;;;;;;;6.83;6.33;;;12.50;99.90;;;;;;5014455;28;20412;-85
2022/05/05 03:01:46;;;;;;;6.50;6.00;;;12.50;99.90;;;;;;5014270;28;20392;-86
2022/05/05 03:04:12;;;;;;;6.30;5.80;;;12.50;99.90;;;;;;5014263;28;20416;-85
2022/05/05 03:06:37;;;;;;;6.87;6.20;;;12.70;99.90;;;;;;5014012;28;20870;-85
2022/05/05 03:09:03;;;;;;;6.60;6.00;;;13.00;99.90;;;;;;5014026;28;20481;-85
2022/05/05 03:11:29;;;;;;;6.88;6.22;;;13.00;99.90;;;;;;5013965;28;20388;-85
2022/05/05 03:13:54;;;;;;;6.40;5.90;;;12.60;99.90;;;;;;5012904;28;20454;-85
2022/05/05 03:16:20;;;;;;;6.70;6.10;;;12.50;99.90;;;;;;5013936;28;20490;-85
2022/05/05 03:18:46;;;;;;;6.60;6.10;;;12.40;99.90;;;;;;5012629;28;20500;-85
2022/05/05 03:21:11;;;;;;;6.85;6.35;;;12.30;99.90;;;;;;5013790;28;20385;-85
2022/05/05 03:23:37;;;;;;;5.85;5.45;;;12.30;99.90;;;;;;5013519;28;20377;-85
2022/05/05 03:26:03;;;;;;;6.03;5.53;;;12.40;99.90;;;;;;5013605;28;20389;-85
2022/05/05 03:28:28;;;;;;;6.18;5.78;;;12.30;99.90;;;;;;5013674;28;20397;-85
2022/05/05 03:30:54;;;;;;;6.50;6.10;;;12.20;99.90;;;;;;5012238;28;20400;-85
2022/05/05 03:33:19;;;;;;;6.63;6.17;;;12.10;99.90;;;;;;5013547;28;20388;-85
2022/05/05 03:35:45;;;;;;;6.23;5.77;;;12.10;99.90;;;;;;5012121;28;20388;-85
2022/05/05 03:38:11;;;;;;;6.10;5.73;;;11.90;99.90;;;;;;5013568;28;20427;-85
2022/05/05 03:40:36;;;;;;;6.00;5.60;;;12.20;99.90;;;;;;5013617;28;20389;-85
2022/05/05 03:43:02;;;;;;;6.55;6.15;;;12.20;99.90;;;;;;5013613;28;20392;-85
2022/05/05 03:45:28;;;;;;;6.20;5.70;;;12.30;99.90;;;;;;5013288;28;20397;-85
2022/05/05 03:47:53;;;;;;;6.70;6.20;;;12.20;99.90;;;;;;5013209;28;20896;-85
2022/05/05 03:50:19;;;;;;;6.20;5.80;;;12.30;99.90;;;;;;5013496;28;20393;-85
2022/05/05 03:52:44;;;;;;;6.85;6.35;;;12.40;99.90;;;;;;5013272;28;20384;-85
2022/05/05 03:55:10;;;;;;;7.30;6.73;;;12.40;99.90;;;;;;5012455;28;20428;-85
2022/05/05 03:57:35;;;;;;;7.80;7.20;;;12.30;99.90;;;;;;5013105;28;20403;-85
2022/05/05 04:00:03;;;;;;;8.63;7.93;;;12.00;99.90;;;;;;5013032;28;20407;-85
2022/05/05 04:02:29;;;;;;;7.80;7.28;;;11.70;99.90;;;;;;5013164;28;20428;-85
2022/05/05 04:04:55;;;;;;;7.82;7.32;;;12.00;99.90;;;;;;5012815;28;20409;-85
2022/05/05 04:07:21;;;;;;;6.97;6.47;;;12.00;99.90;;;;;;5013109;28;20385;-85
2022/05/05 04:09:47;;;;;;;6.97;6.38;;;12.10;99.90;;;;;;5009679;28;20487;-86
2022/05/05 04:12:12;;;;;;;6.88;6.38;;;12.20;99.90;;;;;;5009544;28;20400;-86
2022/05/05 04:14:38;;;;;;;7.07;6.57;;;12.20;99.90;;;;;;5012814;28;20423;-85
2022/05/05 04:17:04;;;;;;;7.63;7.10;;;12.40;99.90;;;;;;5012834;28;20450;-85
2022/05/05 04:19:30;;;;;;;7.67;7.07;;;12.10;99.90;;;;;;5012902;28;20417;-85
2022/05/05 04:21:56;;;;;;;7.50;7.00;;;12.30;99.90;;;;;;5012662;28;20809;-85
2022/05/05 04:24:21;;;;;;;7.40;6.90;;;12.50;99.90;;;;;;5008643;28;20881;-85
2022/05/05 04:26:48;;;;;;;7.40;6.90;;;12.60;99.90;;;;;;5012652;28;20420;-85
2022/05/05 04:29:13;;;;;;;7.15;6.70;;;12.40;99.90;;;;;;5012843;28;20397;-85
2022/05/05 04:31:40;;;;;;;7.80;7.20;;;12.30;99.90;;;;;;5012562;28;20881;-85
2022/05/05 04:34:06;;;;;;;7.50;7.00;;;12.30;99.90;;;;;;5012446;28;20393;-85
2022/05/05 04:36:35;;;;;;;7.57;7.00;;;12.40;99.90;;;;;;5012176;28;20393;-85
2022/05/05 04:39:05;;;;;;;7.35;6.75;;;12.50;99.90;;;;;;5012400;28;20443;-85
2022/05/05 04:41:31;;;;;;;6.47;6.07;;;12.70;99.90;;;;;;5012574;28;20381;-85
2022/05/05 04:43:57;;;;;;;7.07;6.57;;;12.50;99.90;;;;;;5008203;28;20400;-85
2022/05/05 04:46:23;;;;;;;7.27;6.80;;;12.50;99.90;;;;;;5011586;28;20396;-84
2022/05/05 04:48:49;;;;;;;7.57;7.07;;;12.60;99.90;;;;;;5009983;28;20408;-86
2022/05/05 04:51:15;;;;;;;7.60;7.00;;;12.60;99.90;;;;;;5011072;28;20889;-86
2022/05/05 04:53:41;;;;;;;7.10;6.60;;;12.50;99.90;;;;;;5011090;28;20385;-86
2022/05/05 04:56:10;;;;;;;6.90;6.43;;;12.40;99.90;;;;;;5007653;28;20761;-84
2022/05/05 04:58:36;;;;;;;7.25;6.75;;;12.20;99.90;;;;;;5010738;28;20417;-84
2022/05/05 05:01:02;;;;;;;7.70;7.20;;;12.50;99.90;;;;;;5027242;28;20415;-84
2022/05/05 05:03:39;;;;;;;7.32;6.82;;;12.50;99.90;;;;;;5011805;28;20421;-84
2022/05/05 05:06:08;;;;;;;6.75;6.35;;;12.40;99.90;;;;;;5013482;28;20381;-84
2022/05/05 05:08:34;;;;;;;7.60;7.00;;;12.50;99.90;;;;;;5002715;28;20388;-85
2022/05/05 05:11:00;;;;;;;7.57;7.03;;;12.50;99.90;;;;;;5003578;28;20395;-86
2022/05/05 05:13:26;;;;;;;8.80;8.20;;;12.30;99.90;;;;;;5013894;28;20392;-85
2022/05/05 05:15:51;;;;;;;8.77;8.17;;;12.50;99.90;;;;;;5004517;28;20483;-85
2022/05/05 05:18:17;;;;;;;9.57;8.77;;;12.60;99.90;;;;;;5016270;28;20463;-86
2022/05/05 05:20:43;;;;;;;11.00;10.20;;;12.50;99.90;;;;;;5015912;28;20963;-87
2022/05/05 05:23:09;;;;;;;11.70;10.90;;;12.50;99.90;;;;;;5015707;28;20412;-85
2022/05/05 05:25:35;;;;;;;11.07;10.27;;;11.90;99.90;;;;;;5015813;28;20388;-85
2022/05/05 05:28:00;;;;;;;11.65;10.85;;;11.60;99.90;;;;;;5014618;28;20403;-85
2022/05/05 05:30:27;;;;;;;11.95;11.05;;;11.60;99.90;;;;;;5007114;28;20808;-84
2022/05/05 05:32:52;;;;;;;14.00;13.00;;;11.40;99.90;;;;;;5014417;28;20384;-84
2022/05/05 05:35:18;;;;;;;12.07;11.20;;;11.30;99.90;;;;;;5015634;28;20881;-84
2022/05/05 05:37:44;;;;;;;11.00;10.30;;;11.30;99.90;;;;;;5014778;28;20393;-85
2022/05/05 05:40:10;;;;;;;10.50;9.73;;;11.90;99.90;;;;;;5015573;28;20381;-84
2022/05/05 05:42:38;;;;;;;10.50;9.77;;;11.60;99.90;;;;;;5012629;28;20401;-84
2022/05/05 05:45:08;;;;;;;11.00;10.10;;;12.20;99.90;;;;;;5003980;28;20852;-84
2022/05/05 05:47:33;;;;;;;11.20;10.50;;;11.80;99.90;;;;;;4997842;28;20382;-84
2022/05/05 05:49:59;;;;;;;11.30;10.50;;;11.50;99.90;;;;;;5015765;28;20410;-84
2022/05/05 05:52:25;;;;;;;12.07;11.07;;;11.60;99.90;;;;;;5015589;28;20487;-83
2022/05/05 05:54:50;;;;;;;13.03;12.00;;;11.50;99.90;;;;;;5014746;28;20882;-84
2022/05/05 05:57:16;;;;;;;13.13;12.13;;;11.40;99.90;;;;;;5012549;28;20459;-83
2022/05/05 05:59:41;;;;;;;13.00;12.10;;;11.20;99.90;;;;;;5014098;28;20452;-83
2022/05/05 06:05:08;;;;;;;12.52;11.63;;;11.30;99.90;;;;;;4972984;28;20424;-84
2022/05/05 06:07:34;;;;;;;12.88;11.80;;;11.30;99.90;;;;;;5002291;28;20486;-84
2022/05/05 06:10:00;;;;;;;10.30;9.60;;;11.50;99.90;;;;;;5004814;28;20456;-85
2022/05/05 06:12:25;;;;;;;10.15;9.50;;;11.80;99.90;;;;;;5010925;28;20404;-83
2022/05/05 06:14:51;;;;;;;9.05;8.45;;;12.10;99.90;;;;;;5010072;28;20809;-84
2022/05/05 06:17:17;;;;;;;9.47;8.67;;;12.40;99.90;;;;;;5010029;28;20403;-84
2022/05/05 06:19:43;;;;;;;8.88;8.27;;;12.50;99.90;;;;;;5000118;28;20410;-84
2022/05/05 06:22:09;;;;;;;10.55;9.80;;;12.60;99.90;;;;;;4996402;28;20385;-84
2022/05/05 06:24:35;;;;;;;10.25;9.57;;;12.50;99.90;;;;;;5000893;28;20401;-85
2022/05/05 06:27:01;;;;;;;9.50;8.90;;;12.40;99.90;;;;;;5013776;28;20395;-84
2022/05/05 06:29:26;;;;;;;9.88;9.20;;;12.50;99.90;;;;;;5012147;28;20480;-84
2022/05/05 06:31:52;;;;;;;9.45;8.85;;;12.60;99.90;;;;;;5013928;28;20448;-85
2022/05/05 06:34:18;;;;;;;9.43;8.80;;;12.60;99.90;;;;;;5014078;28;20409;-85
2022/05/05 06:36:43;;;;;;;9.23;8.63;;;12.70;99.90;;;;;;5013728;28;20508;-85
2022/05/05 06:39:09;;;;;;;8.90;8.30;;;12.90;99.90;;;;;;5011959;28;20440;-84
2022/05/05 06:41:34;;;;;;;9.43;8.63;;;13.00;99.90;;;;;;5013174;28;20404;-85
2022/05/05 06:44:00;;;;;;;9.43;8.63;;;12.90;99.90;;;;;;5012834;28;20389;-88
2022/05/05 06:46:27;;;;;;;9.23;8.52;;;13.00;99.90;;;;;;5013736;28;20814;-86
2022/05/05 06:48:53;;;;;;;9.15;8.55;;;12.90;99.90;;;;;;5013367;28;20381;-87
2022/05/05 06:51:19;;;;;;;9.48;8.68;;;12.90;99.90;;;;;;5012869;28;20484;-86
2022/05/05 06:53:45;;;;;;;9.10;8.50;;;13.00;99.90;;;;;;4950179;28;1795370;-87
2022/05/05 06:56:10;;;;;;;9.05;8.35;;;12.80;99.90;;;;;;5012470;28;20941;-88
2022/05/05 06:58:36;;;;;;;8.27;7.68;;;12.50;99.90;;;;;;5012929;28;20405;-88
2022/05/05 07:03:46;;;;;;;8.73;8.02;;;12.60;99.90;;;;;;5013992;28;20436;-86
2022/05/05 07:06:12;;;;;;;8.25;7.68;;;12.80;99.90;;;;;;5014151;28;20393;-87
2022/05/05 07:11:23;;;;;;;7.70;7.20;;;12.70;99.90;;;;;;5014371;28;20403;-88
2022/05/05 07:13:49;;;;;;;8.65;7.95;;;12.80;99.90;;;;;;5013786;28;20871;-88
2022/05/05 07:16:14;;;;;;;9.00;8.37;;;12.90;99.90;;;;;;5013811;28;20467;-87
2022/05/05 07:18:40;;;;;;;8.00;7.50;;;12.90;99.90;;;;;;5013692;28;20445;-87
2022/05/05 07:21:06;;;;;;;8.63;8.00;;;12.70;99.90;;;;;;5013825;28;20395;-87
2022/05/05 07:23:32;;;;;;;8.23;7.63;;;12.60;99.90;;;;;;5010560;28;20516;-87
2022/05/05 07:25:58;;;;;;;8.15;7.55;;;12.60;99.90;;;;;;5013686;28;20405;-87
2022/05/05 07:28:23;;;;;;;7.55;6.95;;;12.90;99.90;;;;;;5013168;28;20385;-87
2022/05/05 07:30:50;;;;;;;8.43;7.82;;;13.00;99.90;;;;;;5013424;28;20392;-87
2022/05/05 07:33:16;;;;;;;8.07;7.47;;;13.20;99.90;;;;;;5012288;28;20882;-87
2022/05/05 07:35:44;;;;;;;8.43;7.83;;;12.90;99.90;;;;;;5013067;28;20465;-87
2022/05/05 07:38:09;;;;;;;7.63;7.13;;;12.80;99.90;;;;;;5013208;28;20420;-88
2022/05/05 07:40:35;;;;;;;8.75;8.02;;;12.90;99.90;;;;;;5015274;28;20385;-88
2022/05/05 07:43:01;;;;;;;7.82;7.20;;;12.80;99.90;;;;;;5013757;28;20438;-87
2022/05/05 07:45:26;;;;;;;7.68;7.07;;;13.10;99.90;;;;;;5013267;28;20400;-88
2022/05/05 07:47:52;;;;;;;7.85;7.25;;;13.10;99.90;;;;;;5013293;28;20389;-84
2022/05/05 07:50:17;;;;;;;8.50;7.70;;;13.00;99.90;;;;;;5012449;28;20400;-85
2022/05/05 07:52:43;;;;;;;8.15;7.65;;;12.90;99.90;;;;;;5011423;28;20395;-86
2022/05/05 07:55:09;;;;;;;8.05;7.45;;;13.00;99.90;;;;;;4996096;28;20392;-85
2022/05/05 07:57:45;;;;;;;7.97;7.47;;;12.90;99.90;;;;;;4995013;28;20393;-86
2022/05/05 08:00:13;;;;;;;9.25;8.50;;;12.90;99.90;;;;;;5010501;28;20408;-84
2022/05/05 08:02:39;;;;;;;8.23;7.73;;;12.80;99.90;;;;;;5010358;28;20384;-85
2022/05/05 08:05:08;;;;;;;9.10;8.50;;;12.90;99.90;;;;;;5012994;28;20439;-86
2022/05/05 08:07:34;;;;;;;7.97;7.45;;;12.90;99.90;;;;;;5012380;28;20391;-85
2022/05/05 08:09:59;;;;;;;8.85;8.15;;;13.00;99.90;;;;;;4997198;28;20418;-85
2022/05/05 08:12:25;;;;;;;8.95;8.20;;;13.00;99.90;;;;;;5012930;28;20427;-85
2022/05/05 08:14:50;;;;;;;8.88;8.27;;;12.90;99.90;;;;;;5011946;28;20446;-85
2022/05/05 08:17:16;;;;;;;8.80;8.20;;;13.10;99.90;;;;;;5011480;28;20462;-84
2022/05/05 08:19:41;;;;;;;9.50;8.80;;;13.00;99.90;;;;;;5012778;28;20471;-84
2022/05/05 08:22:07;;;;;;;10.00;9.20;;;12.80;99.90;;;;;;5012755;28;20765;-84
2022/05/05 08:30:02;;;;;;;8.60;8.00;;;12.80;99.90;;;;;;5012897;28;20500;-84
2022/05/05 08:32:29;;;;;;;8.73;8.13;;;12.90;99.90;;;;;;5027743;28;20905;-83
2022/05/05 08:34:55;;;;;;;8.77;8.07;;;13.10;99.90;;;;;;5012742;28;20876;-83
2022/05/05 08:37:20;;;;;;;8.17;7.63;;;13.30;99.90;;;;;;5012247;28;20516;-85
2022/05/05 08:39:46;;;;;;;8.17;7.47;;;13.50;99.90;;;;;;5012345;28;20455;-83
2022/05/05 08:42:12;;;;;;;9.02;8.32;;;13.70;99.90;;;;;;5012740;28;20380;-83
2022/05/05 08:44:37;;;;;;;9.02;8.38;;;13.60;99.90;;;;;;5012707;28;20377;-84
2022/05/05 08:47:08;;;;;;;9.43;8.73;;;13.50;99.90;;;;;;5012518;28;20389;-85
2022/05/05 08:49:36;;;;;;;8.80;8.20;;;13.20;99.90;;;;;;5012346;28;20388;-84
2022/05/05 08:52:06;;;;;;;9.03;8.33;;;13.10;99.90;;;;;;5012448;28;20404;-84
2022/05/05 08:54:38;;;;;;;7.90;7.40;;;13.10;99.90;;;;;;5012284;28;20423;-84
2022/05/05 08:57:04;;;;;;;8.07;7.47;;;13.20;99.90;;;;;;5012403;28;20527;-85
2022/05/05 08:59:31;;;;;;;6.80;6.30;;;13.40;99.90;;;;;;5012260;28;20901;-84
2022/05/05 09:01:56;;;;;;;6.22;5.82;;;13.60;99.90;;;;;;5011101;28;20419;-84
2022/05/05 09:04:22;;;;;;;6.45;5.95;;;13.70;99.90;;;;;;5012264;28;20885;-85
2022/05/05 09:06:52;;;;;;;6.22;5.82;;;13.70;99.90;;;;;;5012334;28;20412;-85
2022/05/05 09:09:27;;;;;;;6.82;6.28;;;13.80;99.90;;;;;;5012397;28;20389;-84
2022/05/05 09:12:15;;;;;;;6.22;5.82;;;13.90;99.90;;;;;;5012487;28;20392;-85
2022/05/05 09:14:47;;;;;;;6.95;6.45;;;13.80;99.90;;;;;;5010811;28;20399;-84
2022/05/05 09:17:18;;;;;;;6.82;6.32;;;13.80;99.90;;;;;;5012217;28;20473;-85
2022/05/05 09:19:50;;;;;;;7.18;6.57;;;13.70;99.90;;;;;;5012171;28;20913;-86
2022/05/05 09:22:20;;;;;;;7.10;6.60;;;13.90;99.90;;;;;;5012246;28;20723;-85
2022/05/05 09:24:49;;;;;;;7.80;7.15;;;13.80;99.90;;;;;;5011946;28;20937;-85
2022/05/05 09:27:28;;;;;;;7.50;6.80;;;13.90;99.90;;;;;;5011644;28;20385;-86
2022/05/05 09:30:14;;;;;;;7.13;6.53;;;13.90;99.90;;;;;;5009803;28;20419;-85
2022/05/05 09:32:42;;;;;;;6.70;6.20;;;13.90;99.90;;;;;;5005277;28;20408;-85
2022/05/05 09:35:15;;;;;;;7.20;6.70;;;14.10;99.90;;;;;;5026528;28;20399;-85
2022/05/05 09:37:46;;;;;;;7.15;6.53;;;14.00;99.90;;;;;;5008375;28;20428;-85
2022/05/05 09:40:19;;;;;;;7.60;7.00;;;14.00;99.90;;;;;;5011522;28;20914;-85
2022/05/05 09:42:49;;;;;;;6.65;6.15;;;14.10;99.90;;;;;;5010752;28;20404;-84
2022/05/05 09:45:17;;;;;;;7.60;7.00;;;14.30;99.90;;;;;;5006484;28;20420;-85
2022/05/05 09:47:51;;;;;;;7.83;7.23;;;14.20;99.90;;;;;;5010587;28;20389;-84
2022/05/05 09:50:19;;;;;;;7.63;6.97;;;14.20;99.90;;;;;;5010417;28;20381;-85
2022/05/05 09:58:21;;;;;;;7.13;6.53;;;14.10;99.90;;;;;;5014301;28;20408;-85
2022/05/05 10:01:04;;;;;;;8.52;7.93;;;14.30;99.90;;;;;;5014203;28;20878;-85
2022/05/05 10:04:00;;;;;;;7.93;7.25;;;14.30;99.90;;;;;;5013199;28;20404;-84
2022/05/05 10:06:30;;;;;;;7.10;6.60;;;14.40;99.90;;;;;;5014488;28;20388;-86
2022/05/05 10:09:01;;;;;;;7.40;6.90;;;14.40;99.90;;;;;;5001949;28;20387;-85
2022/05/05 10:11:27;;;;;;;7.32;6.82;;;14.50;99.90;;;;;;5030045;28;20403;-85
2022/05/05 10:13:53;;;;;;;6.60;6.20;;;14.50;99.90;;;;;;5014405;28;20555;-84
2022/05/05 10:16:20;;;;;;;9.30;6.80;;;14.50;99.90;;;;;;5014070;28;20451;-85
2022/05/05 10:18:46;;;;;;;7.30;6.80;;;14.50;99.90;;;;;;5015413;28;20773;-85
2022/05/05 10:21:24;;;;;;;7.07;6.57;;;14.60;99.90;;;;;;5015509;28;20384;-85
2022/05/05 10:23:56;;;;;;;6.93;6.43;;;14.60;99.90;;;;;;5030288;28;20431;-85
2022/05/05 10:26:24;;;;;;;6.97;6.47;;;14.70;99.90;;;;;;5015331;28;20385;-85
2022/05/05 10:28:50;;;;;;;7.10;6.50;;;14.70;99.90;;;;;;5015142;28;20471;-85
2022/05/05 10:31:31;;;;;;;7.07;6.38;;;14.90;99.90;;;;;;5014617;28;20956;-86
2022/05/05 10:33:59;;;;;;;6.60;6.10;;;14.90;99.90;;;;;;5014533;28;20407;-86
2022/05/05 10:36:25;;;;;;;6.70;6.30;;;15.00;99.90;;;;;;5014545;28;20447;-85
2022/05/05 10:38:52;;;;;;;7.28;6.78;;;15.00;99.90;;;;;;5014227;28;20412;-86
2022/05/05 10:41:38;;;;;;;6.80;6.30;;;15.10;99.90;;;;;;5014915;28;20388;-85
2022/05/05 10:44:16;;;;;;;6.72;6.22;;;15.20;99.90;;;;;;5014296;28;20392;-84
2022/05/05 10:46:55;;;;;;;6.82;6.32;;;15.10;99.90;;;;;;5014597;28;20389;-86
2022/05/05 10:49:41;;;;;;;6.22;5.82;;;15.10;99.90;;;;;;5013963;28;20389;-84
2022/05/05 10:52:10;;;;;;;6.15;5.65;;;15.30;99.90;;;;;;5014011;28;20393;-85
2022/05/05 10:54:47;;;;;;;6.38;5.88;;;15.30;99.90;;;;;;5013811;28;20392;-85
2022/05/05 10:57:38;;;;;;;6.00;5.60;;;15.40;99.90;;;;;;5013748;28;20471;-85
2022/05/05 11:00:11;;;;;;;6.25;5.75;;;15.50;99.90;;;;;;4994758;28;20417;-85
2022/05/05 11:02:58;;;;;;;5.68;5.30;;;15.50;99.90;;;;;;5012756;28;20443;-85
2022/05/05 11:05:27;;;;;;;5.95;5.47;;;15.60;99.90;;;;;;5009975;28;20955;-85
2022/05/05 11:08:19;;;;;;;5.95;5.55;;;15.70;99.90;;;;;;5012280;28;20455;-85
2022/05/05 11:13:41;;;;;;;6.18;5.78;;;15.70;99.90;;;;;;4997897;28;20516;-85
2022/05/05 11:22:24;;;;;;;5.65;5.35;;;15.80;99.90;;;;;;5004806;28;20373;-86
2022/05/05 11:24:51;;;;;;;6.25;5.70;;;16.00;99.90;;;;;;4993031;28;20708;-86
2022/05/05 11:27:25;;;;;;;6.18;5.70;;;15.90;99.90;;;;;;4997693;28;20863;-85
2022/05/05 11:29:51;;;;;;;6.60;6.20;;;15.90;99.90;;;;;;4999680;28;20836;-85
2022/05/05 11:32:19;;;;;;;5.82;5.43;;;15.80;99.90;;;;;;4999185;28;20394;-85
2022/05/05 11:34:46;;;;;;;6.63;6.03;;;15.80;99.90;;;;;;4997184;28;20408;-86
2022/05/05 11:37:13;;;;;;;6.70;6.20;;;15.90;99.90;;;;;;4998763;28;20907;-86
2022/05/05 11:39:39;;;;;;;6.22;5.80;;;16.00;99.90;;;;;;4993086;28;20417;-86
2022/05/05 11:42:06;;;;;;;5.70;5.30;;;16.10;99.90;;;;;;4992939;28;20391;-85
2022/05/05 11:44:40;;;;;;;5.85;5.40;;;16.10;99.90;;;;;;5002524;28;20382;-86
2022/05/05 11:47:26;;;;;;;5.13;4.82;;;16.10;99.90;;;;;;4994875;28;20481;-85
2022/05/05 11:49:52;;;;;;;5.32;5.00;;;16.30;99.90;;;;;;5002695;28;20900;-86
2022/05/05 11:52:25;;;;;;;5.10;4.68;;;16.30;99.90;;;;;;5009171;28;20920;-86
2022/05/05 11:54:53;;;;;;;4.72;4.43;;;16.20;99.90;;;;;;5002409;28;20490;-86
2022/05/05 11:57:31;;;;;;;3.90;3.60;;;16.20;99.90;;;;;;5003380;28;20883;-85
2022/05/05 12:02:41;;;;;;;3.88;3.60;;;16.10;99.90;;;;;;4999677;28;20380;-86
2022/05/05 12:05:08;;;;;;;3.80;3.50;;;16.20;99.90;;;;;;4998756;28;20381;-86
2022/05/05 12:07:35;;;;;;;4.40;4.10;;;16.30;99.90;;;;;;4993975;28;20444;-86
2022/05/05 12:10:05;;;;;;;4.30;4.00;;;16.50;99.90;;;;;;5005831;28;20405;-86
2022/05/05 12:12:31;;;;;;;3.90;3.65;;;16.60;99.90;;;;;;4993802;28;20383;-86
2022/05/05 12:14:59;;;;;;;3.75;3.55;;;16.70;99.90;;;;;;4992937;28;20526;-86
2022/05/05 12:17:41;;;;;;;4.47;4.07;;;16.80;99.90;;;;;;5006244;28;20884;-85
2022/05/05 12:20:09;;;;;;;5.30;4.90;;;16.90;99.90;;;;;;4992713;28;20421;-87
2022/05/05 12:22:39;;;;;;;5.40;4.90;;;17.10;99.90;;;;;;5004765;28;20743;-86
2022/05/05 12:25:16;;;;;;;5.10;4.72;;;17.20;99.90;;;;;;4997971;28;20458;-86
2022/05/05 12:28:00;;;;;;;5.22;4.75;;;17.30;99.90;;;;;;5004977;28;20411;-86
2022/05/05 12:30:39;;;;;;;5.68;5.10;;;17.60;99.90;;;;;;4998171;28;20898;-87
2022/05/05 12:33:11;;;;;;;5.32;4.93;;;17.70;99.90;;;;;;5002156;28;20386;-87
2022/05/05 12:35:41;;;;;;;5.25;4.75;;;17.80;99.90;;;;;;5008576;28;20804;-86
2022/05/05 12:38:13;;;;;;;6.50;4.60;;;18.00;99.90;;;;;;5007888;28;20389;-86
2022/05/05 12:40:41;;;;;;;4.10;3.80;;;18.10;99.90;;;;;;5009773;28;20735;-87
2022/05/05 12:43:09;;;;;;;4.65;4.35;;;18.10;99.90;;;;;;5008578;28;20389;-86
2022/05/05 12:45:37;;;;;;;4.57;4.23;;;18.10;99.90;;;;;;4998371;28;20879;-86
2022/05/05 12:48:05;;;;;;;4.50;4.10;;;18.10;99.90;;;;;;5006657;28;20394;-86
2022/05/05 12:50:48;;;;;;;4.00;3.70;;;18.20;99.90;;;;;;4991117;28;20417;-86
2022/05/05 13:01:46;;;;;;;3.75;3.40;;;18.30;99.90;;;;;;5002568;28;20382;-87
2022/05/05 13:04:15;;;;;;;3.75;3.45;;;18.50;99.90;;;;;;5005583;28;20746;-86
2022/05/05 13:06:42;;;;;;;3.97;3.35;;;18.60;99.90;;;;;;5009518;28;20451;-86
2022/05/05 13:09:09;;;;;;;4.00;3.70;;;18.60;99.90;;;;;;5005952;28;20404;-87
2022/05/05 13:11:36;;;;;;;3.47;3.28;;;18.50;99.90;;;;;;4999879;28;20909;-87
2022/05/05 13:14:02;;;;;;;3.95;3.53;;;18.50;99.90;;;;;;4997927;28;20402;-87
2022/05/05 13:16:30;;;;;;;3.83;3.53;;;18.60;99.90;;;;;;5004250;28;20398;-87
2022/05/05 13:18:59;;;;;;;3.60;3.33;;;18.60;99.90;;;;;;5008206;28;20905;-87
2022/05/05 13:21:26;;;;;;;3.83;2.92;;;18.80;99.90;;;;;;5004993;28;20392;-87
2022/05/05 13:23:52;;;;;;;2.97;2.77;;;18.80;99.90;;;;;;4996520;28;20450;-86
2022/05/05 13:26:18;;;;;;;2.60;2.40;;;18.80;99.90;;;;;;5002282;28;20388;-87
2022/05/05 13:28:44;;;;;;;3.67;3.15;;;18.60;99.90;;;;;;5003446;28;20405;-87
2022/05/05 13:31:09;;;;;;;3.60;2.90;;;18.80;99.90;;;;;;5004315;28;20402;-87
2022/05/05 13:33:35;;;;;;;2.60;2.40;;;18.60;99.90;;;;;;5006292;28;20407;-86
2022/05/05 13:36:01;;;;;;;3.22;2.45;;;18.50;99.90;;;;;;5011386;28;20484;-86
2022/05/05 13:38:27;;;;;;;2.63;2.42;;;18.30;99.90;;;;;;5008394;28;20770;-87
2022/05/05 13:40:55;;;;;;;3.65;2.53;;;18.20;99.90;;;;;;5006413;28;20471;-87